sensor_id;sensor_type;location;lat;lon;timestamp;temperature;humidity
70107;DHT22;57473;37.508;15.080;2023-02-15T00:00:09;8.50;85.00
70107;DHT22;57473;37.508;15.080;2023-02-15T00:02:39;8.40;85.30
70107;DHT22;57473;37.508;15.080;2023-02-15T00:05:07;8.40;85.70
70107;DHT22;57473;37.508;15.080;2023-02-15T00:07:35;8.30;86.30
70107;DHT22;57473;37.508;15.080;2023-02-15T00:10:02;8.30;86.60
70107;DHT22;57473;37.508;15.080;2023-02-15T00:12:30;8.20;86.90
70107;DHT22;57473;37.508;15.080;2023-02-15T00:14:57;8.10;87.20
70107;DHT22;57473;37.508;15.080;2023-02-15T00:17:27;8.00;87.70
70107;DHT22;57473;37.508;15.080;2023-02-15T00:19:54;7.90;88.20
70107;DHT22;57473;37.508;15.080;2023-02-15T00:22:22;7.90;88.80
70107;DHT22;57473;37.508;15.080;2023-02-15T00:24:49;7.80;90.40
70107;DHT22;57473;37.508;15.080;2023-02-15T00:27:17;7.80;90.70
70107;DHT22;57473;37.508;15.080;2023-02-15T00:29:44;7.80;90.80
70107;DHT22;57473;37.508;15.080;2023-02-15T00:32:11;7.90;90.60
70107;DHT22;57473;37.508;15.080;2023-02-15T00:34:39;7.80;90.40
70107;DHT22;57473;37.508;15.080;2023-02-15T00:37:07;7.80;91.10
70107;DHT22;57473;37.508;15.080;2023-02-15T00:39:34;7.80;90.90
70107;DHT22;57473;37.508;15.080;2023-02-15T00:42:01;7.70;92.00
70107;DHT22;57473;37.508;15.080;2023-02-15T00:44:29;7.70;92.30
70107;DHT22;57473;37.508;15.080;2023-02-15T00:46:56;7.80;91.90
70107;DHT22;57473;37.508;15.080;2023-02-15T00:49:23;7.70;91.70
70107;DHT22;57473;37.508;15.080;2023-02-15T00:51:51;7.70;92.10
70107;DHT22;57473;37.508;15.080;2023-02-15T00:54:18;7.60;92.40
70107;DHT22;57473;37.508;15.080;2023-02-15T00:56:46;7.60;93.50
70107;DHT22;57473;37.508;15.080;2023-02-15T00:59:13;7.60;94.30
70107;DHT22;57473;37.508;15.080;2023-02-15T01:01:40;7.50;94.10
70107;DHT22;57473;37.508;15.080;2023-02-15T01:04:07;7.50;94.90
70107;DHT22;57473;37.508;15.080;2023-02-15T01:06:35;7.60;93.70
70107;DHT22;57473;37.508;15.080;2023-02-15T01:09:03;7.60;93.20
70107;DHT22;57473;37.508;15.080;2023-02-15T01:11:30;7.60;92.90
70107;DHT22;57473;37.508;15.080;2023-02-15T01:13:58;7.60;92.80
70107;DHT22;57473;37.508;15.080;2023-02-15T01:16:27;7.50;93.00
70107;DHT22;57473;37.508;15.080;2023-02-15T01:18:55;7.40;93.30
70107;DHT22;57473;37.508;15.080;2023-02-15T01:21:24;7.40;94.10
70107;DHT22;57473;37.508;15.080;2023-02-15T01:23:52;7.40;93.70
70107;DHT22;57473;37.508;15.080;2023-02-15T01:26:20;7.50;92.80
70107;DHT22;57473;37.508;15.080;2023-02-15T01:28:47;7.50;93.00
70107;DHT22;57473;37.508;15.080;2023-02-15T01:31:17;7.50;92.50
70107;DHT22;57473;37.508;15.080;2023-02-15T01:33:46;7.40;92.50
70107;DHT22;57473;37.508;15.080;2023-02-15T01:36:14;7.40;94.60
70107;DHT22;57473;37.508;15.080;2023-02-15T01:38:41;7.40;93.80
70107;DHT22;57473;37.508;15.080;2023-02-15T01:41:09;7.40;93.90
70107;DHT22;57473;37.508;15.080;2023-02-15T01:43:59;7.40;94.10
70107;DHT22;57473;37.508;15.080;2023-02-15T01:46:51;7.30;94.50
70107;DHT22;57473;37.508;15.080;2023-02-15T01:49:21;7.30;94.60
70107;DHT22;57473;37.508;15.080;2023-02-15T01:51:53;7.40;94.00
70107;DHT22;57473;37.508;15.080;2023-02-15T01:54:28;7.40;93.60
70107;DHT22;57473;37.508;15.080;2023-02-15T01:57:00;7.30;93.80
70107;DHT22;57473;37.508;15.080;2023-02-15T01:59:30;7.30;94.30
70107;DHT22;57473;37.508;15.080;2023-02-15T02:01:59;7.20;94.20
70107;DHT22;57473;37.508;15.080;2023-02-15T02:04:46;7.20;95.10
70107;DHT22;57473;37.508;15.080;2023-02-15T02:07:20;7.20;94.70
70107;DHT22;57473;37.508;15.080;2023-02-15T02:09:49;7.10;95.10
70107;DHT22;57473;37.508;15.080;2023-02-15T02:12:17;7.20;95.10
70107;DHT22;57473;37.508;15.080;2023-02-15T02:14:45;7.20;94.40
70107;DHT22;57473;37.508;15.080;2023-02-15T02:34:42;7.10;92.10
70107;DHT22;57473;37.508;15.080;2023-02-15T02:42:38;7.00;93.00
70107;DHT22;57473;37.508;15.080;2023-02-15T02:45:16;7.00;93.10
70107;DHT22;57473;37.508;15.080;2023-02-15T02:47:56;7.00;93.60
70107;DHT22;57473;37.508;15.080;2023-02-15T02:50:28;7.00;94.00
70107;DHT22;57473;37.508;15.080;2023-02-15T02:52:58;7.10;93.40
70107;DHT22;57473;37.508;15.080;2023-02-15T02:55:33;7.10;93.10
70107;DHT22;57473;37.508;15.080;2023-02-15T02:58:56;7.00;93.30
70107;DHT22;57473;37.508;15.080;2023-02-15T03:01:20;7.00;93.30
70107;DHT22;57473;37.508;15.080;2023-02-15T03:04:05;7.00;94.00
70107;DHT22;57473;37.508;15.080;2023-02-15T03:06:48;6.90;93.90
70107;DHT22;57473;37.508;15.080;2023-02-15T03:09:27;6.80;94.50
70107;DHT22;57473;37.508;15.080;2023-02-15T03:12:01;6.80;94.90
70107;DHT22;57473;37.508;15.080;2023-02-15T03:14:39;6.80;94.70
70107;DHT22;57473;37.508;15.080;2023-02-15T03:17:08;6.80;94.50
70107;DHT22;57473;37.508;15.080;2023-02-15T03:19:37;6.80;95.60
70107;DHT22;57473;37.508;15.080;2023-02-15T03:22:23;6.80;95.10
70107;DHT22;57473;37.508;15.080;2023-02-15T03:25:06;6.90;94.60
70107;DHT22;57473;37.508;15.080;2023-02-15T03:27:42;6.80;95.10
70107;DHT22;57473;37.508;15.080;2023-02-15T03:30:13;6.70;96.10
70107;DHT22;57473;37.508;15.080;2023-02-15T03:32:43;6.80;96.10
70107;DHT22;57473;37.508;15.080;2023-02-15T03:35:11;6.80;96.30
70107;DHT22;57473;37.508;15.080;2023-02-15T03:37:42;6.80;95.40
70107;DHT22;57473;37.508;15.080;2023-02-15T03:40:23;6.80;95.10
70107;DHT22;57473;37.508;15.080;2023-02-15T03:44:07;6.70;95.40
70107;DHT22;57473;37.508;15.080;2023-02-15T03:46:40;6.60;95.70
70107;DHT22;57473;37.508;15.080;2023-02-15T03:49:52;6.60;96.60
70107;DHT22;57473;37.508;15.080;2023-02-15T03:52:03;6.60;96.90
70107;DHT22;57473;37.508;15.080;2023-02-15T03:54:33;6.70;96.40
70107;DHT22;57473;37.508;15.080;2023-02-15T03:57:16;6.60;96.50
70107;DHT22;57473;37.508;15.080;2023-02-15T04:06:03;6.60;96.80
70107;DHT22;57473;37.508;15.080;2023-02-15T04:08:30;6.50;97.20
70107;DHT22;57473;37.508;15.080;2023-02-15T04:11:16;6.50;98.00
70107;DHT22;57473;37.508;15.080;2023-02-15T04:13:44;6.60;97.80
70107;DHT22;57473;37.508;15.080;2023-02-15T04:16:11;6.50;97.60
70107;DHT22;57473;37.508;15.080;2023-02-15T04:18:41;6.50;97.50
70107;DHT22;57473;37.508;15.080;2023-02-15T04:21:29;6.50;97.70
70107;DHT22;57473;37.508;15.080;2023-02-15T04:24:15;6.50;98.00
70107;DHT22;57473;37.508;15.080;2023-02-15T04:27:01;6.40;98.20
70107;DHT22;57473;37.508;15.080;2023-02-15T04:29:30;6.50;98.70
70107;DHT22;57473;37.508;15.080;2023-02-15T04:32:00;6.40;98.80
70107;DHT22;57473;37.508;15.080;2023-02-15T04:34:28;6.40;98.90
70107;DHT22;57473;37.508;15.080;2023-02-15T04:36:56;6.40;99.60
70107;DHT22;57473;37.508;15.080;2023-02-15T04:39:23;6.40;99.50
70107;DHT22;57473;37.508;15.080;2023-02-15T04:41:50;6.40;98.90
70107;DHT22;57473;37.508;15.080;2023-02-15T04:44:18;6.40;99.00
70107;DHT22;57473;37.508;15.080;2023-02-15T04:46:45;6.30;99.30
70107;DHT22;57473;37.508;15.080;2023-02-15T04:49:12;6.30;99.80
70107;DHT22;57473;37.508;15.080;2023-02-15T04:51:40;6.30;99.90
70107;DHT22;57473;37.508;15.080;2023-02-15T04:54:07;6.30;99.80
70107;DHT22;57473;37.508;15.080;2023-02-15T04:56:34;6.30;99.90
70107;DHT22;57473;37.508;15.080;2023-02-15T04:59:04;6.30;99.90
70107;DHT22;57473;37.508;15.080;2023-02-15T05:01:32;6.30;99.90
70107;DHT22;57473;37.508;15.080;2023-02-15T05:03:59;6.30;99.90
70107;DHT22;57473;37.508;15.080;2023-02-15T05:06:27;6.30;99.90
70107;DHT22;57473;37.508;15.080;2023-02-15T05:08:54;6.30;99.90
70107;DHT22;57473;37.508;15.080;2023-02-15T05:11:21;6.30;99.90
70107;DHT22;57473;37.508;15.080;2023-02-15T05:13:49;6.30;99.90
70107;DHT22;57473;37.508;15.080;2023-02-15T05:16:16;6.30;99.90
70107;DHT22;57473;37.508;15.080;2023-02-15T05:18:43;6.30;99.90
70107;DHT22;57473;37.508;15.080;2023-02-15T05:21:11;6.30;99.90
70107;DHT22;57473;37.508;15.080;2023-02-15T05:23:38;6.30;99.90
70107;DHT22;57473;37.508;15.080;2023-02-15T05:26:06;6.30;99.90
70107;DHT22;57473;37.508;15.080;2023-02-15T05:28:51;6.30;99.90
70107;DHT22;57473;37.508;15.080;2023-02-15T05:31:19;6.20;99.90
70107;DHT22;57473;37.508;15.080;2023-02-15T05:33:47;6.20;99.90
70107;DHT22;57473;37.508;15.080;2023-02-15T05:36:14;6.20;99.90
70107;DHT22;57473;37.508;15.080;2023-02-15T05:38:41;6.20;99.90
70107;DHT22;57473;37.508;15.080;2023-02-15T05:41:10;6.30;99.90
70107;DHT22;57473;37.508;15.080;2023-02-15T05:43:38;6.20;99.90
70107;DHT22;57473;37.508;15.080;2023-02-15T05:46:06;6.20;99.90
70107;DHT22;57473;37.508;15.080;2023-02-15T05:48:34;6.20;99.60
70107;DHT22;57473;37.508;15.080;2023-02-15T05:53:33;6.20;98.80
70107;DHT22;57473;37.508;15.080;2023-02-15T05:56:04;6.20;99.10
70107;DHT22;57473;37.508;15.080;2023-02-15T05:58:37;6.20;98.90
70107;DHT22;57473;37.508;15.080;2023-02-15T06:01:16;6.20;98.70
70107;DHT22;57473;37.508;15.080;2023-02-15T06:03:45;6.20;98.60
70107;DHT22;57473;37.508;15.080;2023-02-15T06:06:12;6.20;98.50
70107;DHT22;57473;37.508;15.080;2023-02-15T06:08:40;6.30;98.40
70107;DHT22;57473;37.508;15.080;2023-02-15T06:11:07;6.30;98.10
70107;DHT22;57473;37.508;15.080;2023-02-15T06:13:35;6.30;97.40
70107;DHT22;57473;37.508;15.080;2023-02-15T06:16:05;6.40;97.00
70107;DHT22;57473;37.508;15.080;2023-02-15T06:18:33;6.50;96.10
70107;DHT22;57473;37.508;15.080;2023-02-15T06:21:02;6.60;95.80
70107;DHT22;57473;37.508;15.080;2023-02-15T06:23:29;6.70;95.30
70107;DHT22;57473;37.508;15.080;2023-02-15T06:25:56;6.80;94.70
70107;DHT22;57473;37.508;15.080;2023-02-15T06:28:24;6.90;94.30
70107;DHT22;57473;37.508;15.080;2023-02-15T06:30:52;7.00;93.80
70107;DHT22;57473;37.508;15.080;2023-02-15T06:33:20;7.10;93.50
70107;DHT22;57473;37.508;15.080;2023-02-15T06:35:47;7.30;91.80
70107;DHT22;57473;37.508;15.080;2023-02-15T06:38:14;7.40;90.10
70107;DHT22;57473;37.508;15.080;2023-02-15T06:40:42;7.60;88.90
70107;DHT22;57473;37.508;15.080;2023-02-15T06:43:09;7.70;87.70
70107;DHT22;57473;37.508;15.080;2023-02-15T06:45:36;7.80;87.00
70107;DHT22;57473;37.508;15.080;2023-02-15T06:48:04;7.90;86.80
70107;DHT22;57473;37.508;15.080;2023-02-15T06:50:34;8.00;86.10
70107;DHT22;57473;37.508;15.080;2023-02-15T06:53:02;8.10;86.00
70107;DHT22;57473;37.508;15.080;2023-02-15T06:55:29;8.20;86.10
70107;DHT22;57473;37.508;15.080;2023-02-15T06:57:57;8.30;85.90
70107;DHT22;57473;37.508;15.080;2023-02-15T07:00:24;8.40;85.50
70107;DHT22;57473;37.508;15.080;2023-02-15T07:02:56;8.60;84.40
70107;DHT22;57473;37.508;15.080;2023-02-15T07:05:26;8.60;83.50
70107;DHT22;57473;37.508;15.080;2023-02-15T07:07:59;8.70;83.10
70107;DHT22;57473;37.508;15.080;2023-02-15T07:10:28;8.80;83.10
70107;DHT22;57473;37.508;15.080;2023-02-15T07:12:55;8.90;83.10
70107;DHT22;57473;37.508;15.080;2023-02-15T07:15:23;9.00;83.20
70107;DHT22;57473;37.508;15.080;2023-02-15T07:17:50;9.20;82.70
70107;DHT22;57473;37.508;15.080;2023-02-15T07:20:22;9.30;82.50
70107;DHT22;57473;37.508;15.080;2023-02-15T07:22:50;9.50;81.60
70107;DHT22;57473;37.508;15.080;2023-02-15T07:25:18;9.60;80.40
70107;DHT22;57473;37.508;15.080;2023-02-15T07:27:45;9.80;79.90
70107;DHT22;57473;37.508;15.080;2023-02-15T07:30:15;9.90;79.30
70107;DHT22;57473;37.508;15.080;2023-02-15T07:32:44;10.10;78.10
70107;DHT22;57473;37.508;15.080;2023-02-15T07:35:51;10.20;77.30
70107;DHT22;57473;37.508;15.080;2023-02-15T07:38:20;10.40;75.30
70107;DHT22;57473;37.508;15.080;2023-02-15T07:40:47;10.60;74.80
70107;DHT22;57473;37.508;15.080;2023-02-15T07:43:15;10.70;74.40
70107;DHT22;57473;37.508;15.080;2023-02-15T07:45:42;10.90;73.30
70107;DHT22;57473;37.508;15.080;2023-02-15T07:48:10;11.00;71.80
70107;DHT22;57473;37.508;15.080;2023-02-15T07:50:37;11.20;71.40
70107;DHT22;57473;37.508;15.080;2023-02-15T07:53:04;11.30;70.90
70107;DHT22;57473;37.508;15.080;2023-02-15T07:55:32;11.50;69.50
70107;DHT22;57473;37.508;15.080;2023-02-15T07:57:59;11.60;68.80
70107;DHT22;57473;37.508;15.080;2023-02-15T08:00:26;11.70;68.40
70107;DHT22;57473;37.508;15.080;2023-02-15T08:02:55;11.80;67.00
70107;DHT22;57473;37.508;15.080;2023-02-15T08:05:42;11.90;66.40
70107;DHT22;57473;37.508;15.080;2023-02-15T08:08:12;12.10;66.30
70107;DHT22;57473;37.508;15.080;2023-02-15T08:13:52;12.20;68.50
70107;DHT22;57473;37.508;15.080;2023-02-15T08:16:39;12.30;68.50
70107;DHT22;57473;37.508;15.080;2023-02-15T08:19:12;12.30;68.80
70107;DHT22;57473;37.508;15.080;2023-02-15T08:21:42;12.30;69.80
70107;DHT22;57473;37.508;15.080;2023-02-15T08:24:14;12.30;70.70
70107;DHT22;57473;37.508;15.080;2023-02-15T08:26:43;12.30;71.50
70107;DHT22;57473;37.508;15.080;2023-02-15T08:29:15;12.30;72.40
70107;DHT22;57473;37.508;15.080;2023-02-15T08:31:42;12.40;72.50
70107;DHT22;57473;37.508;15.080;2023-02-15T08:34:12;12.40;72.30
70107;DHT22;57473;37.508;15.080;2023-02-15T08:36:40;12.60;72.10
70107;DHT22;57473;37.508;15.080;2023-02-15T08:39:08;12.70;71.40
70107;DHT22;57473;37.508;15.080;2023-02-15T08:41:37;12.80;70.50
70107;DHT22;57473;37.508;15.080;2023-02-15T08:44:07;12.90;69.20
70107;DHT22;57473;37.508;15.080;2023-02-15T08:46:37;12.90;67.90
70107;DHT22;57473;37.508;15.080;2023-02-15T08:49:05;13.00;64.10
70107;DHT22;57473;37.508;15.080;2023-02-15T08:51:34;13.20;63.80
70107;DHT22;57473;37.508;15.080;2023-02-15T08:54:04;13.20;62.60
70107;DHT22;57473;37.508;15.080;2023-02-15T08:56:35;13.20;61.60
70107;DHT22;57473;37.508;15.080;2023-02-15T08:59:04;13.40;61.40
70107;DHT22;57473;37.508;15.080;2023-02-15T09:01:34;13.50;62.50
70107;DHT22;57473;37.508;15.080;2023-02-15T09:04:04;13.60;61.50
70107;DHT22;57473;37.508;15.080;2023-02-15T09:06:33;13.80;62.40
70107;DHT22;57473;37.508;15.080;2023-02-15T09:09:00;14.00;61.50
70107;DHT22;57473;37.508;15.080;2023-02-15T09:11:30;14.10;59.70
70107;DHT22;57473;37.508;15.080;2023-02-15T09:14:05;14.10;58.60
70107;DHT22;57473;37.508;15.080;2023-02-15T09:16:34;14.00;56.60
70107;DHT22;57473;37.508;15.080;2023-02-15T09:19:02;14.00;54.60
70107;DHT22;57473;37.508;15.080;2023-02-15T09:21:32;14.00;55.30
70107;DHT22;57473;37.508;15.080;2023-02-15T09:24:04;14.10;54.60
70107;DHT22;57473;37.508;15.080;2023-02-15T09:26:35;14.20;53.50
70107;DHT22;57473;37.508;15.080;2023-02-15T09:29:03;14.30;53.70
70107;DHT22;57473;37.508;15.080;2023-02-15T09:31:38;14.30;53.30
70107;DHT22;57473;37.508;15.080;2023-02-15T09:34:06;14.40;53.50
70107;DHT22;57473;37.508;15.080;2023-02-15T09:36:35;14.60;53.30
70107;DHT22;57473;37.508;15.080;2023-02-15T09:39:07;14.70;52.10
70107;DHT22;57473;37.508;15.080;2023-02-15T09:44:49;14.80;52.90
70107;DHT22;57473;37.508;15.080;2023-02-15T10:09:44;15.30;50.80
70107;DHT22;57473;37.508;15.080;2023-02-15T10:28:57;15.60;49.10
70107;DHT22;57473;37.508;15.080;2023-02-15T10:31:53;15.60;49.50
70107;DHT22;57473;37.508;15.080;2023-02-15T10:56:24;15.90;49.60
70107;DHT22;57473;37.508;15.080;2023-02-15T10:59:25;15.80;49.20
70107;DHT22;57473;37.508;15.080;2023-02-15T11:07:16;16.00;49.00
70107;DHT22;57473;37.508;15.080;2023-02-15T11:10:05;16.10;48.50
70107;DHT22;57473;37.508;15.080;2023-02-15T11:12:34;16.40;48.50
70107;DHT22;57473;37.508;15.080;2023-02-15T11:15:18;16.60;47.90
70107;DHT22;57473;37.508;15.080;2023-02-15T11:17:55;16.80;47.50
70107;DHT22;57473;37.508;15.080;2023-02-15T11:20:51;17.30;46.50
70107;DHT22;57473;37.508;15.080;2023-02-15T11:23:21;17.80;46.10
70107;DHT22;57473;37.508;15.080;2023-02-15T11:26:00;17.50;45.80
70107;DHT22;57473;37.508;15.080;2023-02-15T11:28:43;17.50;46.50
70107;DHT22;57473;37.508;15.080;2023-02-15T11:31:23;18.10;44.60
70107;DHT22;57473;37.508;15.080;2023-02-15T11:34:00;18.40;43.70
70107;DHT22;57473;37.508;15.080;2023-02-15T11:36:37;18.70;43.10
70107;DHT22;57473;37.508;15.080;2023-02-15T11:39:11;19.00;42.70
70107;DHT22;57473;37.508;15.080;2023-02-15T11:41:45;19.30;42.00
70107;DHT22;57473;37.508;15.080;2023-02-15T11:45:46;19.50;41.10
70107;DHT22;57473;37.508;15.080;2023-02-15T11:47:42;19.60;41.60
70107;DHT22;57473;37.508;15.080;2023-02-15T11:50:15;19.30;41.80
70107;DHT22;57473;37.508;15.080;2023-02-15T11:52:44;19.40;41.90
70107;DHT22;57473;37.508;15.080;2023-02-15T11:55:19;19.10;42.00
70107;DHT22;57473;37.508;15.080;2023-02-15T11:57:54;18.90;43.20
70107;DHT22;57473;37.508;15.080;2023-02-15T12:00:42;18.80;43.20
70107;DHT22;57473;37.508;15.080;2023-02-15T12:03:36;19.30;41.90
70107;DHT22;57473;37.508;15.080;2023-02-15T12:06:18;19.60;41.60
70107;DHT22;57473;37.508;15.080;2023-02-15T12:09:00;19.70;41.70
70107;DHT22;57473;37.508;15.080;2023-02-15T12:11:36;19.80;42.50
70107;DHT22;57473;37.508;15.080;2023-02-15T12:14:07;19.70;42.10
70107;DHT22;57473;37.508;15.080;2023-02-15T12:16:45;19.70;42.80
70107;DHT22;57473;37.508;15.080;2023-02-15T12:21:56;20.70;41.20
70107;DHT22;57473;37.508;15.080;2023-02-15T12:24:32;20.60;41.50
70107;DHT22;57473;37.508;15.080;2023-02-15T12:27:19;19.60;43.30
70107;DHT22;57473;37.508;15.080;2023-02-15T12:32:24;19.40;45.30
70107;DHT22;57473;37.508;15.080;2023-02-15T12:34:56;19.40;44.00
70107;DHT22;57473;37.508;15.080;2023-02-15T12:37:29;19.10;45.10
70107;DHT22;57473;37.508;15.080;2023-02-15T12:40:00;19.30;44.90
70107;DHT22;57473;37.508;15.080;2023-02-15T12:42:42;19.70;44.20
70107;DHT22;57473;37.508;15.080;2023-02-15T12:45:31;19.60;44.90
70107;DHT22;57473;37.508;15.080;2023-02-15T12:48:16;19.30;45.70
70107;DHT22;57473;37.508;15.080;2023-02-15T12:50:46;19.70;45.40
70107;DHT22;57473;37.508;15.080;2023-02-15T12:53:32;19.40;45.60
70107;DHT22;57473;37.508;15.080;2023-02-15T12:56:02;19.20;46.60
70107;DHT22;57473;37.508;15.080;2023-02-15T12:58:34;19.60;45.90
70107;DHT22;57473;37.508;15.080;2023-02-15T13:03:38;19.30;46.50
70107;DHT22;57473;37.508;15.080;2023-02-15T13:06:06;19.60;46.50
70107;DHT22;57473;37.508;15.080;2023-02-15T13:08:45;19.70;46.30
70107;DHT22;57473;37.508;15.080;2023-02-15T13:11:21;19.40;46.60
70107;DHT22;57473;37.508;15.080;2023-02-15T13:14:01;19.00;47.70
70107;DHT22;57473;37.508;15.080;2023-02-15T13:16:37;19.00;47.90
70107;DHT22;57473;37.508;15.080;2023-02-15T13:19:21;19.10;48.10
70107;DHT22;57473;37.508;15.080;2023-02-15T13:21:52;19.40;47.40
70107;DHT22;57473;37.508;15.080;2023-02-15T13:24:27;18.90;48.30
70107;DHT22;57473;37.508;15.080;2023-02-15T13:26:57;18.90;48.60
70107;DHT22;57473;37.508;15.080;2023-02-15T13:29:52;19.00;48.50
70107;DHT22;57473;37.508;15.080;2023-02-15T13:34:57;18.00;50.70
70107;DHT22;57473;37.508;15.080;2023-02-15T13:40:44;16.90;53.60
70107;DHT22;57473;37.508;15.080;2023-02-15T13:43:48;16.60;54.60
70107;DHT22;57473;37.508;15.080;2023-02-15T14:00:27;16.00;57.90
70107;DHT22;57473;37.508;15.080;2023-02-15T14:17:09;16.00;61.00
70107;DHT22;57473;37.508;15.080;2023-02-15T14:30:32;15.90;60.40
70107;DHT22;57473;37.508;15.080;2023-02-15T14:33:10;15.90;61.30
70107;DHT22;57473;37.508;15.080;2023-02-15T14:35:44;15.90;61.60
70107;DHT22;57473;37.508;15.080;2023-02-15T14:46:50;15.70;62.50
70107;DHT22;57473;37.508;15.080;2023-02-15T14:49:36;15.60;62.50
70107;DHT22;57473;37.508;15.080;2023-02-15T14:52:06;15.60;62.40
70107;DHT22;57473;37.508;15.080;2023-02-15T15:20:49;15.30;63.50
70107;DHT22;57473;37.508;15.080;2023-02-15T15:25:51;15.10;65.70
70107;DHT22;57473;37.508;15.080;2023-02-15T15:37:23;14.90;65.70
70107;DHT22;57473;37.508;15.080;2023-02-15T15:40:18;14.90;65.50
70107;DHT22;57473;37.508;15.080;2023-02-15T15:45:57;14.80;67.20
70107;DHT22;57473;37.508;15.080;2023-02-15T15:48:36;14.80;68.60
70107;DHT22;57473;37.508;15.080;2023-02-15T15:51:27;14.70;69.70
70107;DHT22;57473;37.508;15.080;2023-02-15T15:53:57;14.70;70.50
70107;DHT22;57473;37.508;15.080;2023-02-15T15:56:27;14.60;70.30
70107;DHT22;57473;37.508;15.080;2023-02-15T15:59:05;14.60;69.70
70107;DHT22;57473;37.508;15.080;2023-02-15T16:01:42;14.50;69.90
70107;DHT22;57473;37.508;15.080;2023-02-15T16:04:24;14.50;70.60
70107;DHT22;57473;37.508;15.080;2023-02-15T16:06:53;14.50;71.70
70107;DHT22;57473;37.508;15.080;2023-02-15T16:09:25;14.50;72.30
70107;DHT22;57473;37.508;15.080;2023-02-15T16:11:56;14.40;73.00
70107;DHT22;57473;37.508;15.080;2023-02-15T16:14:36;14.30;73.80
70107;DHT22;57473;37.508;15.080;2023-02-15T16:17:28;14.30;74.40
70107;DHT22;57473;37.508;15.080;2023-02-15T16:20:03;14.20;75.00
70107;DHT22;57473;37.508;15.080;2023-02-15T16:22:33;14.20;75.60
70107;DHT22;57473;37.508;15.080;2023-02-15T16:27:51;14.10;76.50
70107;DHT22;57473;37.508;15.080;2023-02-15T16:30:28;14.00;77.20
70107;DHT22;57473;37.508;15.080;2023-02-15T16:35:37;13.90;77.70
70107;DHT22;57473;37.508;15.080;2023-02-15T16:38:09;13.90;77.40
70107;DHT22;57473;37.508;15.080;2023-02-15T16:40:46;13.80;77.50
70107;DHT22;57473;37.508;15.080;2023-02-15T16:43:24;13.80;77.10
70107;DHT22;57473;37.508;15.080;2023-02-15T16:46:03;13.70;77.40
70107;DHT22;57473;37.508;15.080;2023-02-15T16:48:33;13.70;78.00
70107;DHT22;57473;37.508;15.080;2023-02-15T16:51:02;13.60;78.30
70107;DHT22;57473;37.508;15.080;2023-02-15T16:53:30;13.60;78.70
70107;DHT22;57473;37.508;15.080;2023-02-15T16:56:01;13.50;79.00
70107;DHT22;57473;37.508;15.080;2023-02-15T17:01:06;13.40;79.40
70107;DHT22;57473;37.508;15.080;2023-02-15T17:03:35;13.30;79.90
70107;DHT22;57473;37.508;15.080;2023-02-15T17:06:03;13.40;79.50
70107;DHT22;57473;37.508;15.080;2023-02-15T17:11:18;13.40;79.20
70107;DHT22;57473;37.508;15.080;2023-02-15T17:19:03;13.20;79.80
70107;DHT22;57473;37.508;15.080;2023-02-15T17:21:48;13.20;80.70
70107;DHT22;57473;37.508;15.080;2023-02-15T17:24:28;13.10;80.80
70107;DHT22;57473;37.508;15.080;2023-02-15T17:27:02;13.00;81.20
70107;DHT22;57473;37.508;15.080;2023-02-15T17:29:37;13.00;81.90
70107;DHT22;57473;37.508;15.080;2023-02-15T17:32:12;12.90;82.50
70107;DHT22;57473;37.508;15.080;2023-02-15T17:37:31;12.90;82.20
70107;DHT22;57473;37.508;15.080;2023-02-15T17:40:00;12.90;83.20
70107;DHT22;57473;37.508;15.080;2023-02-15T17:42:27;12.80;83.20
70107;DHT22;57473;37.508;15.080;2023-02-15T17:44:55;12.80;83.90
70107;DHT22;57473;37.508;15.080;2023-02-15T17:47:23;12.70;83.80
70107;DHT22;57473;37.508;15.080;2023-02-15T17:49:53;12.80;84.50
70107;DHT22;57473;37.508;15.080;2023-02-15T17:52:21;12.80;84.00
70107;DHT22;57473;37.508;15.080;2023-02-15T17:54:48;12.70;84.00
70107;DHT22;57473;37.508;15.080;2023-02-15T17:57:34;12.70;85.40
70107;DHT22;57473;37.508;15.080;2023-02-15T18:00:02;12.70;85.00
70107;DHT22;57473;37.508;15.080;2023-02-15T18:02:48;12.60;85.30
70107;DHT22;57473;37.508;15.080;2023-02-15T18:05:36;12.60;86.30
70107;DHT22;57473;37.508;15.080;2023-02-15T18:08:26;12.50;85.90
70107;DHT22;57473;37.508;15.080;2023-02-15T18:11:15;12.50;86.10
70107;DHT22;57473;37.508;15.080;2023-02-15T18:14:01;12.40;86.60
70107;DHT22;57473;37.508;15.080;2023-02-15T18:16:38;12.40;87.00
70107;DHT22;57473;37.508;15.080;2023-02-15T18:19:22;12.30;87.70
70107;DHT22;57473;37.508;15.080;2023-02-15T18:21:50;12.30;88.00
70107;DHT22;57473;37.508;15.080;2023-02-15T18:24:21;12.30;88.60
70107;DHT22;57473;37.508;15.080;2023-02-15T18:26:51;12.20;88.60
70107;DHT22;57473;37.508;15.080;2023-02-15T18:29:19;12.20;89.00
70107;DHT22;57473;37.508;15.080;2023-02-15T18:31:50;12.20;89.30
70107;DHT22;57473;37.508;15.080;2023-02-15T18:34:27;12.20;89.60
70107;DHT22;57473;37.508;15.080;2023-02-15T18:36:56;12.20;89.40
70107;DHT22;57473;37.508;15.080;2023-02-15T18:39:25;12.20;89.80
70107;DHT22;57473;37.508;15.080;2023-02-15T18:41:53;12.20;89.80
70107;DHT22;57473;37.508;15.080;2023-02-15T18:44:20;12.30;89.70
70107;DHT22;57473;37.508;15.080;2023-02-15T18:46:48;12.20;90.00
70107;DHT22;57473;37.508;15.080;2023-02-15T18:49:15;12.20;90.00
70107;DHT22;57473;37.508;15.080;2023-02-15T18:51:43;12.20;90.20
70107;DHT22;57473;37.508;15.080;2023-02-15T18:54:22;12.20;90.20
70107;DHT22;57473;37.508;15.080;2023-02-15T18:56:56;12.20;90.50
70107;DHT22;57473;37.508;15.080;2023-02-15T18:59:26;12.10;90.30
70107;DHT22;57473;37.508;15.080;2023-02-15T19:01:53;12.10;90.60
70107;DHT22;57473;37.508;15.080;2023-02-15T19:04:21;12.00;90.40
70107;DHT22;57473;37.508;15.080;2023-02-15T19:06:52;12.00;90.80
70107;DHT22;57473;37.508;15.080;2023-02-15T19:09:22;12.10;90.80
70107;DHT22;57473;37.508;15.080;2023-02-15T19:11:53;12.00;90.90
70107;DHT22;57473;37.508;15.080;2023-02-15T19:14:29;12.00;90.60
70107;DHT22;57473;37.508;15.080;2023-02-15T19:16:58;12.00;90.90
70107;DHT22;57473;37.508;15.080;2023-02-15T19:19:26;12.00;91.10
70107;DHT22;57473;37.508;15.080;2023-02-15T19:21:54;12.00;91.40
70107;DHT22;57473;37.508;15.080;2023-02-15T19:24:35;11.90;91.40
70107;DHT22;57473;37.508;15.080;2023-02-15T19:27:06;11.90;91.40
70107;DHT22;57473;37.508;15.080;2023-02-15T19:29:34;11.90;91.70
70107;DHT22;57473;37.508;15.080;2023-02-15T19:32:02;11.90;92.30
70107;DHT22;57473;37.508;15.080;2023-02-15T19:34:30;11.90;92.20
70107;DHT22;57473;37.508;15.080;2023-02-15T19:36:57;11.90;91.80
70107;DHT22;57473;37.508;15.080;2023-02-15T19:39:29;11.90;92.00
70107;DHT22;57473;37.508;15.080;2023-02-15T19:41:59;11.90;91.80